createdAt,value
2019-04-07T00:09:12.537Z,7.51
2019-04-07T00:19:12.497Z,7.50
2019-04-07T00:29:12.705Z,7.61
2019-04-07T00:39:12.572Z,7.79
2019-04-07T00:49:13.237Z,7.83
2019-04-07T00:59:12.520Z,7.68
2019-04-07T01:09:12.550Z,7.32
2019-04-07T01:19:12.520Z,6.93
2019-04-07T01:29:12.479Z,6.94
2019-04-07T01:39:12.978Z,7.09
2019-04-07T01:49:12.916Z,6.94
2019-04-07T01:59:12.561Z,6.76
2019-04-07T02:09:12.566Z,6.68
2019-04-07T02:19:12.538Z,6.28
2019-04-07T02:29:12.631Z,6.04
2019-04-07T02:39:13.116Z,6.10
2019-04-07T02:49:12.518Z,6.09
2019-04-07T02:59:12.990Z,5.94
2019-04-07T03:09:12.870Z,5.81
2019-04-07T03:19:13.164Z,5.56
2019-04-07T03:29:12.550Z,5.68
2019-04-07T03:39:12.560Z,5.88
2019-04-07T03:49:13.435Z,5.97
2019-04-07T03:59:12.979Z,5.57
2019-04-07T04:09:13.874Z,5.28
2019-04-07T04:19:13.063Z,5.45
2019-04-07T04:29:12.698Z,5.47
2019-04-07T04:39:13.063Z,5.48
2019-04-07T04:49:12.533Z,5.61
2019-04-07T04:59:12.823Z,5.79
2019-04-07T05:09:13.320Z,6.02
2019-04-07T05:19:12.593Z,6.19
2019-04-07T05:29:12.510Z,6.45
2019-04-07T05:39:13.343Z,6.74
2019-04-07T05:49:15.648Z,7.07
2019-04-07T05:59:13.856Z,7.66
2019-04-07T06:09:12.511Z,8.76
2019-04-07T06:19:12.533Z,9.69
2019-04-07T06:29:12.467Z,10.39
2019-04-07T06:39:13.563Z,11.44
2019-04-07T06:49:13.756Z,12.50
2019-04-07T06:59:15.338Z,11.99
2019-04-07T07:09:14.095Z,12.69
2019-04-07T07:19:12.998Z,13.12
2019-04-07T07:29:14.669Z,13.73
2019-04-07T07:39:13.524Z,14.62
2019-04-07T07:49:12.500Z,15.43
2019-04-07T07:59:13.425Z,16.50
2019-04-07T08:09:15.225Z,16.73
2019-04-07T08:19:12.541Z,16.44
2019-04-07T08:29:13.019Z,16.98
2019-04-07T08:39:21.484Z,17.93
2019-04-07T08:49:12.771Z,18.45
2019-04-07T08:59:16.201Z,19.24
2019-04-07T09:09:12.562Z,19.90
2019-04-07T09:19:12.534Z,19.88
2019-04-07T09:29:12.765Z,19.56
2019-04-07T09:39:13.197Z,19.58
2019-04-07T09:49:12.529Z,19.15
2019-04-07T09:59:16.778Z,19.51
2019-04-07T10:09:12.695Z,20.03
2019-04-07T10:19:13.086Z,19.82
2019-04-07T10:29:12.544Z,19.87
2019-04-07T10:39:13.039Z,20.37
2019-04-07T10:49:12.540Z,20.23
2019-04-07T10:59:12.634Z,19.43
2019-04-07T11:09:13.206Z,19.30
2019-04-07T11:19:12.964Z,19.75
2019-04-07T11:29:13.198Z,19.72
2019-04-07T11:39:13.502Z,19.60
2019-04-07T11:49:13.392Z,19.74
2019-04-07T11:59:13.376Z,19.83
2019-04-07T12:09:13.090Z,20.60
2019-04-07T12:19:12.688Z,19.96
2019-04-07T12:29:12.601Z,20.61
2019-04-07T12:39:16.233Z,20.42
2019-04-07T12:49:13.281Z,21.19
2019-04-07T12:59:15.850Z,20.96
2019-04-07T13:09:12.578Z,21.70
2019-04-07T13:19:14.084Z,21.92
2019-04-07T13:29:12.938Z,21.58
2019-04-07T13:39:12.619Z,21.08
2019-04-07T13:49:12.819Z,21.93
2019-04-07T13:59:13.815Z,21.85
2019-04-07T14:09:12.592Z,21.04
2019-04-07T14:19:13.432Z,21.03
2019-04-07T14:29:13.157Z,21.16
2019-04-07T14:39:12.827Z,21.18
2019-04-07T14:49:15.580Z,21.67
2019-04-07T14:59:12.897Z,21.75
2019-04-07T15:09:13.318Z,21.38
2019-04-07T15:19:13.672Z,21.15
2019-04-07T15:29:12.685Z,21.69
2019-04-07T15:39:12.942Z,22.15
2019-04-07T15:49:12.716Z,20.85
2019-04-07T15:59:12.600Z,21.50
2019-04-07T16:09:22.378Z,21.33
2019-04-07T16:19:18.757Z,21.45
2019-04-07T16:29:15.498Z,20.13
2019-04-07T16:39:13.536Z,19.43
2019-04-07T16:49:13.668Z,19.15
2019-04-07T16:59:13.472Z,18.93
2019-04-07T17:09:13.237Z,18.80
2019-04-07T17:19:13.136Z,18.68
2019-04-07T17:29:17.148Z,18.53
2019-04-07T17:39:13.250Z,18.39
2019-04-07T17:49:13.519Z,18.16
2019-04-07T17:59:15.492Z,17.97
2019-04-07T18:09:15.020Z,17.77
2019-04-07T18:19:14.137Z,17.63
2019-04-07T18:29:13.544Z,17.35
2019-04-07T18:39:15.942Z,16.56
2019-04-07T18:49:12.769Z,15.66
2019-04-07T18:59:12.932Z,15.18
2019-04-07T19:09:12.608Z,14.95
2019-04-07T19:19:12.739Z,14.73
2019-04-07T19:29:12.684Z,14.46
2019-04-07T19:39:12.662Z,14.36
2019-04-07T19:49:15.324Z,14.46
2019-04-07T19:59:12.772Z,15.11
2019-04-07T20:09:12.801Z,14.92
2019-04-07T20:19:13.043Z,14.53
2019-04-07T20:29:12.647Z,14.15
2019-04-07T20:39:12.698Z,13.93
2019-04-07T20:49:13.633Z,13.49
2019-04-07T20:59:12.643Z,13.07
2019-04-07T21:09:14.079Z,12.84
2019-04-07T21:19:12.629Z,12.65
2019-04-07T21:29:12.932Z,12.45
2019-04-07T21:39:12.938Z,12.30
2019-04-07T21:49:12.647Z,12.13
2019-04-07T21:59:12.874Z,12.00
2019-04-07T22:09:14.711Z,11.86
2019-04-07T22:19:15.327Z,11.73
2019-04-07T22:29:12.702Z,11.60
2019-04-07T22:39:12.687Z,11.51
2019-04-07T22:49:13.497Z,11.29
2019-04-07T22:59:12.806Z,11.13
2019-04-07T23:09:13.438Z,11.19
2019-04-07T23:19:12.575Z,11.28
2019-04-07T23:29:12.687Z,11.25
2019-04-07T23:39:13.122Z,11.24
2019-04-07T23:49:13.131Z,11.22
2019-04-07T23:59:12.691Z,11.15
